createdAt,value
2023-01-08T00:00:57.633Z,2.10
2023-01-08T00:05:50.929Z,1.42
2023-01-08T00:10:44.049Z,1.93
2023-01-08T00:15:37.487Z,1.89
2023-01-08T00:20:32.378Z,1.57
2023-01-08T00:25:25.647Z,1.55
2023-01-08T00:30:18.896Z,1.00
2023-01-08T00:35:12.191Z,1.99
2023-01-08T00:40:08.506Z,2.01
2023-01-08T00:45:01.759Z,1.77
2023-01-08T00:49:54.995Z,2.10
2023-01-08T00:54:48.181Z,1.30
2023-01-08T00:59:42.909Z,1.15
2023-01-08T01:04:36.285Z,0.94
2023-01-08T01:09:29.651Z,1.68
2023-01-08T01:14:23.037Z,1.59
2023-01-08T01:19:19.124Z,1.47
2023-01-08T01:24:15.830Z,1.37
2023-01-08T01:29:09.059Z,1.53
2023-01-08T01:34:02.418Z,1.59
2023-01-08T01:38:59.181Z,1.27
2023-01-08T01:43:52.983Z,1.42
2023-01-08T01:48:48.077Z,1.25
2023-01-08T01:53:41.944Z,1.52
2023-01-08T01:58:37.188Z,1.39
2023-01-08T02:03:32.181Z,1.31
2023-01-08T02:08:35.738Z,1.37
2023-01-08T02:13:35.290Z,1.64
2023-01-08T02:18:38.235Z,1.84
2023-01-08T02:23:38.608Z,1.97
2023-01-08T02:28:37.811Z,1.80
2023-01-08T02:33:33.141Z,1.63
2023-01-08T02:38:27.092Z,1.65
2023-01-08T02:43:27.423Z,0.91
2023-01-08T02:48:34.211Z,1.64
2023-01-08T02:53:30.235Z,1.53
2023-01-08T02:58:24.712Z,1.42
2023-01-08T03:03:20.734Z,1.49
2023-01-08T03:08:15.788Z,0.95
2023-01-08T03:13:16.757Z,1.17
2023-01-08T03:18:15.049Z,1.41
2023-01-08T03:23:11.813Z,0.92
2023-01-08T03:28:13.118Z,1.18
2023-01-08T03:33:08.789Z,0.61
2023-01-08T03:38:08.955Z,1.36
2023-01-08T03:43:02.348Z,1.23
2023-01-08T03:47:58.389Z,1.35
2023-01-08T03:52:51.575Z,1.22
2023-01-08T03:57:44.737Z,1.26
2023-01-08T04:02:38.360Z,0.86
2023-01-08T04:07:32.933Z,0.58
2023-01-08T04:12:26.064Z,0.94
2023-01-08T04:17:19.292Z,0.62
2023-01-08T04:22:12.492Z,0.21
2023-01-08T04:27:07.170Z,0.47
2023-01-08T04:32:01.360Z,0.45
2023-01-08T04:36:54.590Z,0.95
2023-01-08T04:41:47.958Z,1.11
2023-01-08T04:46:42.552Z,1.05
2023-01-08T04:51:35.858Z,1.11
2023-01-08T04:56:29.120Z,0.88
2023-01-08T05:01:25.419Z,0.85
2023-01-08T05:06:20.126Z,0.85
2023-01-08T05:11:13.301Z,-0.22
2023-01-08T05:16:07.032Z,0.52
2023-01-08T05:21:03.032Z,0.60
2023-01-08T05:25:59.913Z,0.39
2023-01-08T05:30:53.194Z,0.34
2023-01-08T05:35:46.721Z,-0.08
2023-01-08T05:40:40.077Z,0.44
2023-01-08T05:45:35.183Z,0.48
2023-01-08T05:50:28.422Z,0.76
2023-01-08T05:55:21.608Z,0.58
2023-01-08T06:00:16.410Z,0.59
2023-01-08T06:05:11.415Z,0.51
2023-01-08T06:10:04.957Z,0.61
2023-01-08T06:14:58.154Z,0.67
2023-01-08T06:19:51.403Z,-0.05
2023-01-08T06:24:46.092Z,0.61
2023-01-08T06:29:39.385Z,0.68
2023-01-08T06:34:32.752Z,1.13
2023-01-08T06:39:28.068Z,1.31
2023-01-08T06:44:23.173Z,0.72
2023-01-08T06:49:17.637Z,1.20
2023-01-08T06:54:13.469Z,1.03
2023-01-08T06:59:07.501Z,0.87
2023-01-08T07:04:02.309Z,1.33
2023-01-08T07:08:58.084Z,1.42
2023-01-08T07:13:51.586Z,1.90
2023-01-08T07:18:45.022Z,1.93
2023-01-08T07:23:39.797Z,1.80
2023-01-08T07:28:33.414Z,1.72
2023-01-08T07:33:26.799Z,1.60
2023-01-08T07:38:20.080Z,1.41
2023-01-08T07:43:15.065Z,1.49
2023-01-08T07:48:10.670Z,1.77
2023-01-08T07:53:04.352Z,2.05
2023-01-08T07:57:57.770Z,1.90
2023-01-08T08:02:52.497Z,2.33
2023-01-08T08:07:45.900Z,2.47
2023-01-08T08:12:39.200Z,1.98
2023-01-08T08:17:32.348Z,2.82
2023-01-08T08:22:27.558Z,1.84
2023-01-08T08:27:20.800Z,3.15
2023-01-08T08:32:14.124Z,3.48
2023-01-08T08:37:07.297Z,3.39
2023-01-08T08:42:01.965Z,4.26
2023-01-08T08:46:55.284Z,4.61
2023-01-08T08:51:48.596Z,4.93
2023-01-08T08:56:42.089Z,4.87
2023-01-08T09:01:36.850Z,5.26
2023-01-08T09:06:30.100Z,5.40
2023-01-08T09:11:23.427Z,6.20
2023-01-08T09:16:16.689Z,6.06
2023-01-08T09:21:11.995Z,8.00
2023-01-08T09:26:07.289Z,8.85
2023-01-08T09:31:02.950Z,9.87
2023-01-08T09:35:56.761Z,11.23
2023-01-08T09:40:59.693Z,11.00
2023-01-08T09:45:56.834Z,11.88
2023-01-08T09:50:52.133Z,11.74
2023-01-08T09:55:51.766Z,11.96
2023-01-08T10:00:51.088Z,12.41
2023-01-08T10:05:44.432Z,11.67
2023-01-08T10:10:39.189Z,11.91
2023-01-08T10:15:32.460Z,11.31
2023-01-08T10:20:29.020Z,11.50
2023-01-08T10:25:24.232Z,11.80
2023-01-08T10:30:19.681Z,11.47
2023-01-08T10:35:20.267Z,11.91
2023-01-08T10:40:25.367Z,12.20
2023-01-08T10:45:25.548Z,12.51
2023-01-08T10:50:23.814Z,12.72
2023-01-08T10:55:25.845Z,12.72
2023-01-08T11:00:30.929Z,13.13
2023-01-08T11:05:33.382Z,13.19
2023-01-08T11:10:29.973Z,13.03
2023-01-08T11:15:32.366Z,12.42
2023-01-08T11:20:30.923Z,13.33
2023-01-08T11:25:31.436Z,13.50
2023-01-08T11:30:25.103Z,13.71
2023-01-08T11:35:22.462Z,13.54
2023-01-08T11:40:17.477Z,13.43
2023-01-08T11:45:28.865Z,12.85
2023-01-08T11:50:29.023Z,13.07
2023-01-08T11:55:33.586Z,12.33
2023-01-08T12:00:58.433Z,11.52
2023-01-08T12:06:00.545Z,11.02
2023-01-08T12:11:03.917Z,10.87
2023-01-08T12:16:11.149Z,10.51
2023-01-08T12:21:14.403Z,10.46
2023-01-08T12:26:25.489Z,10.28
2023-01-08T12:31:57.646Z,10.21
2023-01-08T12:37:03.843Z,10.22
2023-01-08T12:42:08.571Z,10.22
2023-01-08T12:47:05.612Z,9.21
2023-01-08T12:52:08.613Z,10.03
2023-01-08T12:57:10.200Z,10.29
2023-01-08T13:02:18.199Z,9.99
2023-01-08T13:07:19.192Z,10.00
2023-01-08T13:12:15.998Z,10.32
2023-01-08T13:17:19.136Z,9.79
2023-01-08T13:22:31.403Z,10.11
2023-01-08T13:27:30.581Z,10.13
2023-01-08T13:32:47.044Z,10.14
2023-01-08T13:37:40.372Z,10.38
2023-01-08T13:42:35.676Z,9.00
2023-01-08T13:47:39.601Z,10.39
2023-01-08T13:52:41.321Z,10.13
2023-01-08T13:57:42.697Z,10.39
2023-01-08T14:02:50.343Z,10.41
2023-01-08T14:07:45.287Z,10.29
2023-01-08T14:12:38.478Z,9.62
2023-01-08T14:17:33.831Z,10.39
2023-01-08T14:22:32.224Z,10.33
2023-01-08T14:27:29.756Z,10.30
2023-01-08T14:32:25.071Z,9.74
2023-01-08T14:37:18.877Z,10.00
2023-01-08T14:42:35.104Z,9.92
2023-01-08T14:47:34.812Z,9.98
2023-01-08T14:52:28.327Z,10.03
2023-01-08T14:57:24.177Z,9.46
2023-01-08T15:02:25.307Z,9.19
2023-01-08T15:07:27.714Z,9.12
2023-01-08T15:12:25.820Z,9.75
2023-01-08T15:17:21.394Z,9.38
2023-01-08T15:22:19.834Z,9.34
2023-01-08T15:27:21.484Z,8.82
2023-01-08T15:32:23.427Z,8.83
2023-01-08T15:37:19.405Z,8.52
2023-01-08T15:42:40.637Z,8.90
2023-01-08T15:47:34.195Z,8.34
2023-01-08T15:52:30.774Z,8.90
2023-01-08T15:57:25.645Z,8.64
2023-01-08T16:02:19.324Z,8.69
2023-01-08T16:07:12.853Z,8.55
2023-01-08T16:12:06.828Z,7.57
2023-01-08T16:17:02.678Z,7.78
2023-01-08T16:21:56.021Z,8.31
2023-01-08T16:26:49.318Z,8.17
2023-01-08T16:31:46.042Z,7.74
2023-01-08T16:36:40.909Z,7.63
2023-01-08T16:41:36.925Z,7.24
2023-01-08T16:46:30.284Z,7.09
2023-01-08T16:51:25.402Z,7.67
2023-01-08T16:56:20.161Z,7.47
2023-01-08T17:01:13.877Z,7.48
2023-01-08T17:06:08.832Z,6.36
2023-01-08T17:11:02.268Z,6.03
2023-01-08T17:15:59.012Z,7.02
2023-01-08T17:20:56.828Z,6.40
2023-01-08T17:25:50.143Z,7.03
2023-01-08T17:30:43.531Z,6.37
2023-01-08T17:35:38.236Z,6.69
2023-01-08T17:40:34.901Z,6.30
2023-01-08T17:45:28.167Z,6.44
2023-01-08T17:50:21.693Z,6.52
2023-01-08T17:55:16.609Z,6.41
2023-01-08T18:00:11.796Z,5.31
2023-01-08T18:05:07.195Z,6.42
2023-01-08T18:10:03.639Z,6.35
2023-01-08T18:14:58.282Z,5.84
2023-01-08T18:19:51.706Z,6.32
2023-01-08T18:24:48.023Z,5.74
2023-01-08T18:29:44.047Z,5.64
2023-01-08T18:34:39.026Z,4.76
2023-01-08T18:39:34.938Z,6.10
2023-01-08T18:44:28.321Z,5.66
2023-01-08T18:49:23.641Z,6.09
2023-01-08T18:54:21.314Z,5.74
2023-01-08T18:59:15.618Z,5.83
2023-01-08T19:04:11.510Z,5.46
2023-01-08T19:09:07.813Z,5.98
2023-01-08T19:14:02.428Z,5.29
2023-01-08T19:18:55.909Z,5.56
2023-01-08T19:23:49.534Z,5.09
2023-01-08T19:28:43.294Z,5.41
2023-01-08T19:33:38.001Z,5.39
2023-01-08T19:38:31.470Z,5.30
2023-01-08T19:43:46.010Z,5.11
2023-01-08T19:48:42.687Z,5.68
2023-01-08T19:53:36.120Z,5.65
2023-01-08T19:58:29.965Z,5.46
2023-01-08T20:03:26.637Z,5.55
2023-01-08T20:08:22.273Z,4.94
2023-01-08T20:13:15.674Z,5.47
2023-01-08T20:18:11.592Z,5.43
2023-01-08T20:23:05.031Z,4.70
2023-01-08T20:28:01.623Z,3.89
2023-01-08T20:32:55.003Z,4.73
2023-01-08T20:37:51.062Z,4.84
2023-01-08T20:42:47.018Z,4.64
2023-01-08T20:47:45.723Z,4.70
2023-01-08T20:52:39.248Z,4.72
2023-01-08T20:57:32.488Z,3.93
2023-01-08T21:02:26.040Z,5.13
2023-01-08T21:07:20.672Z,4.94
2023-01-08T21:12:15.270Z,5.03
2023-01-08T21:17:08.412Z,4.97
2023-01-08T21:22:01.563Z,4.97
2023-01-08T21:26:56.324Z,4.62
2023-01-08T21:31:50.179Z,4.89
2023-01-08T21:36:43.639Z,4.87
2023-01-08T21:41:55.935Z,4.18
2023-01-08T21:46:52.044Z,4.76
2023-01-08T21:52:02.699Z,4.70
2023-01-08T21:56:55.923Z,4.40
2023-01-08T22:01:50.652Z,4.35
2023-01-08T22:06:44.026Z,4.04
2023-01-08T22:11:37.332Z,3.65
2023-01-08T22:16:30.685Z,3.67
2023-01-08T22:21:25.366Z,3.76
2023-01-08T22:26:22.849Z,3.28
2023-01-08T22:31:17.309Z,3.21
2023-01-08T22:36:13.431Z,3.29
2023-01-08T22:41:15.433Z,3.15
2023-01-08T22:46:08.809Z,2.98
2023-01-08T22:51:04.088Z,2.76
2023-01-08T22:55:59.554Z,2.54
2023-01-08T23:00:54.135Z,2.59
2023-01-08T23:05:47.487Z,2.79
2023-01-08T23:10:40.718Z,2.74
2023-01-08T23:15:33.909Z,2.64
2023-01-08T23:20:28.565Z,2.58
2023-01-08T23:25:21.918Z,2.53
2023-01-08T23:30:15.365Z,2.50
2023-01-08T23:35:10.095Z,2.31
2023-01-08T23:40:04.810Z,2.39
2023-01-08T23:45:01.178Z,2.25
2023-01-08T23:49:54.435Z,2.50
2023-01-08T23:54:47.560Z,2.45
2023-01-08T23:59:42.156Z,1.78
